Time;durP1;ratioP1;P1;durP2;ratioP2;P2;SDS_P1;SDS_P2;PMS_P1;PMS_P2;Temp;Humidity;BMP_temperature;BMP_pressure;BME280_temperature;BME280_humidity;BME280_pressure;Samples;Min_cycle;Max_cycle;Signal;HPM_P1;HPM_P2
2021/12/14 00:01:40;;;;;;;1999.90;999.90;;;;;;;4.58;98.79;163619.38;5052447;28;20102;-67
2021/12/14 00:04:28;;;;;;;1999.90;999.90;;;;;;;4.52;99.11;163601.50;5045549;28;20394;-67
2021/12/14 00:06:55;;;;;;;1999.90;999.90;;;;;;;4.61;98.71;163626.19;5044267;28;20102;-67
2021/12/14 00:09:29;;;;;;;1999.90;999.90;;;;;;;4.64;98.78;163633.06;5041968;28;20590;-67
2021/12/14 00:15:03;;;;;;;1999.90;999.90;;;;;;;4.63;98.74;163630.31;5044495;28;20073;-67
2021/12/14 00:17:38;;;;;;;1999.90;999.90;;;;;;;4.67;98.56;163641.28;5048026;28;20076;-67
2021/12/14 00:20:25;;;;;;;1999.90;999.90;;;;;;;4.68;98.69;163644.06;5057017;28;20049;-68
2021/12/14 00:25:27;;;;;;;1999.90;999.90;;;;;;;4.73;98.38;163657.75;5051435;28;20056;-66
2021/12/14 00:27:55;;;;;;;1999.90;999.90;;;;;;;4.71;98.40;163652.28;5053639;28;20080;-68
2021/12/14 00:30:22;;;;;;;1999.90;999.90;;;;;;;4.28;99.52;163537.06;5050155;28;20100;-69
2021/12/14 00:32:49;;;;;;;1999.90;999.90;;;;;;;4.28;100.00;163537.06;5046058;28;20092;-68
2021/12/14 00:35:15;;;;;;;1999.90;999.90;;;;;;;4.47;99.18;163587.81;5046889;28;20150;-68
2021/12/14 00:37:49;;;;;;;1999.90;999.90;;;;;;;4.45;98.46;163583.72;5050160;28;20053;-66
2021/12/14 00:40:18;;;;;;;1999.90;999.90;;;;;;;4.38;99.29;163564.50;5044671;28;20116;-66
2021/12/14 00:42:46;;;;;;;1999.90;999.90;;;;;;;4.50;99.16;163597.41;5051788;28;20464;-66
2021/12/14 00:45:14;;;;;;;1999.90;999.90;;;;;;;4.55;98.50;163611.09;5040722;28;20080;-66
2021/12/14 00:47:41;;;;;;;1999.90;999.90;;;;;;;4.60;98.44;163623.47;5044608;28;20460;-66
2021/12/14 00:50:09;;;;;;;1999.90;999.90;;;;;;;4.64;97.95;163633.06;5044442;28;20516;-66
2021/12/14 00:52:36;;;;;;;1999.90;999.90;;;;;;;4.58;98.36;163619.38;5053223;28;20122;-66
2021/12/14 00:55:06;;;;;;;1999.90;999.90;;;;;;;4.61;98.13;163624.84;5042106;28;20085;-66
2021/12/14 00:57:36;;;;;;;1999.90;999.90;;;;;;;4.52;98.22;163602.88;5047754;28;20357;-66
2021/12/14 01:00:17;;;;;;;1999.90;999.90;;;;;;;4.36;98.73;163558.97;5055128;28;20102;-66
2021/12/14 01:02:45;;;;;;;1999.90;999.90;;;;;;;4.43;98.72;163576.84;5045216;28;20049;-66
2021/12/14 01:05:25;;;;;;;1999.90;999.90;;;;;;;4.55;98.28;163611.09;5048384;28;20056;-66
2021/12/14 01:07:52;;;;;;;1999.90;999.90;;;;;;;4.44;98.53;163579.53;5047273;28;20053;-66
2021/12/14 01:10:33;;;;;;;1999.90;999.90;;;;;;;4.46;98.51;163586.41;5040808;28;20588;-66
2021/12/14 01:13:05;;;;;;;1999.90;999.90;;;;;;;4.25;98.42;163530.19;5040787;28;20091;-66
2021/12/14 01:16:00;;;;;;;1999.90;999.90;;;;;;;4.03;99.32;163471.22;5048766;28;20081;-65
2021/12/14 01:18:44;;;;;;;1999.90;999.90;;;;;;;4.19;99.16;163513.75;5036172;28;20048;-66
2021/12/14 01:21:29;;;;;;;1999.90;999.90;;;;;;;4.36;98.61;163560.38;5037507;28;20125;-65
2021/12/14 01:24:06;;;;;;;1999.90;999.90;;;;;;;4.36;98.73;163558.97;5041329;28;20150;-66
2021/12/14 01:26:36;;;;;;;1999.90;999.90;;;;;;;4.34;98.60;163554.88;5041974;28;20291;-66
2021/12/14 01:29:06;;;;;;;1999.90;999.90;;;;;;;4.34;98.55;163553.53;5042219;28;20107;-65
2021/12/14 01:31:37;;;;;;;1999.90;999.90;;;;;;;4.41;98.45;163574.06;5040268;28;20084;-65
2021/12/14 01:34:13;;;;;;;1999.90;999.90;;;;;;;4.50;98.15;163596.03;5035695;28;20071;-65
2021/12/14 01:36:47;;;;;;;1999.90;999.90;;;;;;;4.49;98.19;163593.28;5039021;28;20102;-65
2021/12/14 01:42:38;;;;;;;1999.90;999.90;;;;;;;4.56;97.93;163612.50;5039435;28;20096;-65
2021/12/14 01:45:13;;;;;;;1999.90;999.90;;;;;;;4.44;98.20;163579.53;5040657;28;20354;-65
2021/12/14 01:47:47;;;;;;;1999.90;999.90;;;;;;;4.49;98.16;163594.66;5031646;28;20344;-65
2021/12/14 01:50:36;;;;;;;1999.90;999.90;;;;;;;4.37;98.27;163561.75;5037054;28;20081;-65
2021/12/14 01:53:03;;;;;;;1999.90;999.90;;;;;;;4.21;98.78;163519.22;5038835;28;20111;-65
2021/12/14 01:55:34;;;;;;;1999.90;999.90;;;;;;;4.28;98.85;163537.06;5045887;28;20068;-65
2021/12/14 01:58:04;;;;;;;1999.90;999.90;;;;;;;4.23;98.91;163524.72;5031117;28;20057;-65
2021/12/14 02:00:39;;;;;;;1999.90;999.90;;;;;;;4.37;98.53;163563.09;5041922;28;20617;-65
2021/12/14 02:03:09;;;;;;;1999.90;999.90;;;;;;;4.29;98.80;163541.19;5033648;28;20127;-65
2021/12/14 02:05:41;;;;;;;1999.90;999.90;;;;;;;4.35;98.75;163557.63;5044192;28;20611;-65
2021/12/14 02:08:24;;;;;;;1999.90;999.90;;;;;;;4.30;99.18;163542.53;5043898;28;20099;-65
2021/12/14 02:10:53;;;;;;;1999.90;999.90;;;;;;;4.36;98.53;163558.97;5039975;28;20077;-65
2021/12/14 02:13:27;;;;;;;1999.90;999.90;;;;;;;4.36;98.59;163558.97;5039333;28;20469;-65
2021/12/14 02:15:53;;;;;;;1999.90;999.90;;;;;;;4.40;98.58;163569.97;5042137;28;20148;-65
2021/12/14 02:18:23;;;;;;;1999.90;999.90;;;;;;;4.49;98.35;163594.66;5041907;28;20080;-65
2021/12/14 02:21:01;;;;;;;1999.90;999.90;;;;;;;4.39;98.33;163567.22;5040724;28;20069;-65
2021/12/14 02:23:30;;;;;;;1999.90;999.90;;;;;;;4.08;99.55;163484.97;5032174;28;20044;-65
2021/12/14 02:25:59;;;;;;;1999.90;999.90;;;;;;;4.30;98.97;163542.53;5041124;28;20068;-65
2021/12/14 02:28:26;;;;;;;1999.90;999.90;;;;;;;4.30;98.84;163542.53;5044028;28;20384;-65
2021/12/14 02:30:56;;;;;;;1999.90;999.90;;;;;;;4.23;99.01;163526.09;5037247;28;20088;-65
2021/12/14 02:33:31;;;;;;;1999.90;999.90;;;;;;;4.35;98.54;163557.63;5041545;28;20137;-66
2021/12/14 02:36:01;;;;;;;1999.90;999.90;;;;;;;4.30;98.40;163543.94;5035008;28;20049;-65
2021/12/14 02:38:28;;;;;;;1999.90;999.90;;;;;;;4.34;98.76;163554.88;5032241;28;20079;-65
2021/12/14 02:40:54;;;;;;;1999.90;999.90;;;;;;;4.41;98.48;163572.72;5045175;28;20134;-66
2021/12/14 02:43:22;;;;;;;1999.90;999.90;;;;;;;4.38;98.42;163565.84;5036127;28;20072;-65
2021/12/14 02:45:49;;;;;;;1999.90;999.90;;;;;;;4.30;98.25;163543.94;5042667;28;20536;-65
2021/12/14 02:48:16;;;;;;;1999.90;999.90;;;;;;;4.21;99.10;163520.63;5036302;28;20049;-65
2021/12/14 02:50:43;;;;;;;1999.90;999.90;;;;;;;4.38;99.06;163565.84;5037630;28;20053;-65
2021/12/14 02:53:11;;;;;;;1999.90;999.90;;;;;;;4.44;98.71;163580.94;5039960;28;20073;-65
2021/12/14 02:55:38;;;;;;;1999.90;999.90;;;;;;;4.36;98.80;163558.97;5044421;28;20084;-65
2021/12/14 02:58:07;;;;;;;1999.90;999.90;;;;;;;4.34;99.11;163554.88;5038466;28;20076;-65
2021/12/14 03:00:40;;;;;;;1999.90;999.90;;;;;;;4.35;99.15;163556.28;5037407;28;20050;-65
2021/12/14 03:03:09;;;;;;;1999.90;999.90;;;;;;;4.34;99.21;163554.88;5047150;28;20064;-65
2021/12/14 03:05:39;;;;;;;1999.90;999.90;;;;;;;4.38;99.05;163565.84;5038690;28;20053;-65
2021/12/14 03:08:15;;;;;;;1999.90;999.90;;;;;;;4.41;98.93;163572.72;5046633;28;20044;-65
2021/12/14 03:13:35;;;;;;;1999.90;999.90;;;;;;;4.47;98.95;163589.19;5039846;28;20076;-65
2021/12/14 03:16:05;;;;;;;1999.90;999.90;;;;;;;4.27;99.41;163534.31;5038542;28;20405;-67
2021/12/14 03:18:36;;;;;;;1999.90;999.90;;;;;;;4.29;99.41;163541.19;5033426;28;20453;-67
2021/12/14 03:21:07;;;;;;;1999.90;999.90;;;;;;;4.34;99.09;163553.53;5034828;28;20053;-65
2021/12/14 03:24:01;;;;;;;1999.90;999.90;;;;;;;4.42;98.84;163575.44;5039125;28;20057;-65
2021/12/14 03:26:31;;;;;;;1999.90;999.90;;;;;;;4.40;98.66;163571.31;5033597;28;20101;-65
2021/12/14 03:29:07;;;;;;;1999.90;999.90;;;;;;;4.34;98.96;163553.53;5034951;28;20109;-66
2021/12/14 03:31:40;;;;;;;1999.90;999.90;;;;;;;4.41;98.60;163572.72;5040060;28;20130;-65
2021/12/14 03:34:12;;;;;;;1999.90;999.90;;;;;;;4.35;99.12;163557.63;5043940;28;20061;-65
2021/12/14 03:36:53;;;;;;;1999.90;999.90;;;;;;;4.48;98.80;163591.94;5039324;28;20049;-65
2021/12/14 03:39:20;;;;;;;;;;;;;;;4.50;98.66;163597.41;5047161;28;20072;-65
2021/12/14 03:41:54;;;;;;;1999.90;999.90;;;;;;;4.46;98.80;163585.06;5044580;28;19968;-65
2021/12/14 03:44:28;;;;;;;1999.90;999.90;;;;;;;4.26;98.85;163531.53;5040457;28;20459;-65
2021/12/14 03:47:01;;;;;;;1999.90;999.90;;;;;;;4.18;99.68;163511.00;5042890;28;20046;-65
2021/12/14 03:49:36;;;;;;;1999.90;999.90;;;;;;;4.25;99.62;163530.19;5043494;28;20051;-65
2021/12/14 03:52:06;;;;;;;1999.90;999.90;;;;;;;4.24;99.78;163527.44;5043481;28;20123;-65
2021/12/14 03:54:33;;;;;;;1999.90;999.90;;;;;;;4.17;99.70;163509.63;5036533;28;20154;-66
2021/12/14 03:57:00;;;;;;;1999.90;999.90;;;;;;;4.27;99.60;163535.66;5041704;28;20080;-66
2021/12/14 03:59:28;;;;;;;1999.90;999.90;;;;;;;4.16;99.56;163505.53;5046033;28;20437;-66
2021/12/14 04:01:57;;;;;;;1999.90;999.90;;;;;;;4.12;99.89;163495.91;5040835;28;20080;-66
2021/12/14 04:04:31;;;;;;;1999.90;999.90;;;;;;;4.28;99.55;163538.41;5044094;28;20045;-66
2021/12/14 04:07:00;;;;;;;1999.90;999.90;;;;;;;4.33;99.46;163550.75;5046451;28;20083;-66
2021/12/14 04:09:32;;;;;;;1999.90;999.90;;;;;;;4.56;98.83;163613.84;5037609;28;20088;-66
2021/12/14 04:11:59;;;;;;;1999.90;999.90;;;;;;;4.48;98.80;163591.94;5042045;28;20045;-66
2021/12/14 04:14:29;;;;;;;1999.90;999.90;;;;;;;4.45;99.27;163583.72;5043309;28;20065;-66
2021/12/14 04:16:59;;;;;;;1999.90;999.90;;;;;;;4.59;98.78;163620.72;5047622;28;20064;-66
2021/12/14 04:19:29;;;;;;;1999.90;999.90;;;;;;;4.58;98.72;163617.97;5046626;28;20077;-66
2021/12/14 04:22:00;;;;;;;1999.90;999.90;;;;;;;4.47;99.12;163589.19;5037859;28;20049;-66
2021/12/14 04:24:33;;;;;;;1999.90;999.90;;;;;;;4.51;99.15;163598.75;5039536;28;20069;-66
2021/12/14 04:27:04;;;;;;;1999.90;999.90;;;;;;;4.45;99.32;163583.72;5047625;28;20410;-66
2021/12/14 04:29:31;;;;;;;1999.90;999.90;;;;;;;4.45;99.30;163582.31;5047961;28;20087;-66
2021/12/14 04:31:58;;;;;;;1999.90;999.90;;;;;;;4.52;99.24;163602.88;5043549;28;20048;-66
2021/12/14 04:34:29;;;;;;;1999.90;999.90;;;;;;;4.49;99.26;163594.66;5038642;28;20130;-66
2021/12/14 04:36:56;;;;;;;1999.90;999.90;;;;;;;4.37;99.76;163561.75;5042570;28;20052;-66
2021/12/14 04:39:34;;;;;;;1999.90;999.90;;;;;;;4.44;99.46;163580.94;5045659;28;20123;-66
2021/12/14 04:53:34;;;;;;;1999.90;999.90;;;;;;;4.55;99.37;163611.09;5045701;28;20107;-66
2021/12/14 04:56:03;;;;;;;1999.90;999.90;;;;;;;4.59;99.52;163622.06;5043100;28;20094;-66
2021/12/14 04:58:36;;;;;;;1999.90;999.90;;;;;;;4.69;99.18;163646.75;5039634;28;20040;-66
2021/12/14 05:01:06;;;;;;;1999.90;999.90;;;;;;;4.67;99.18;163642.66;5045169;28;20095;-66
2021/12/14 05:03:49;;;;;;;1999.90;999.90;;;;;;;4.73;99.23;163657.75;5044867;28;20373;-66
2021/12/14 05:06:22;;;;;;;1999.90;999.90;;;;;;;4.67;99.24;163641.28;5034867;28;20191;-66
2021/12/14 05:11:23;;;;;;;1999.90;999.90;;;;;;;4.91;98.79;163707.16;5045510;28;20076;-67
2021/12/14 05:13:57;;;;;;;1999.90;999.90;;;;;;;4.58;99.46;163617.97;5045344;28;20076;-65
2021/12/14 05:16:27;;;;;;;1999.90;999.90;;;;;;;4.65;99.58;163635.81;5040150;28;20105;-65
2021/12/14 05:19:00;;;;;;;1999.90;999.90;;;;;;;4.45;100.00;163583.72;5046654;28;20045;-67
2021/12/14 05:21:28;;;;;;;1999.90;999.90;;;;;;;4.49;100.00;163594.66;5037905;28;20084;-65
2021/12/14 05:23:57;;;;;;;1999.90;999.90;;;;;;;4.47;100.00;163589.19;5043137;28;20076;-66
2021/12/14 05:26:24;;;;;;;1999.90;999.90;;;;;;;4.65;99.79;163635.81;5045395;28;20442;-65
2021/12/14 05:28:55;;;;;;;1999.90;999.90;;;;;;;4.72;99.53;163655.03;5038930;28;20057;-66
2021/12/14 05:31:22;;;;;;;1999.90;999.90;;;;;;;4.76;99.60;163667.38;5040798;28;20070;-66
2021/12/14 05:33:49;;;;;;;1999.90;999.90;;;;;;;4.79;99.34;163674.19;5039017;28;20053;-66
2021/12/14 05:36:18;;;;;;;1999.90;999.90;;;;;;;4.81;99.28;163679.72;5044241;28;20075;-66
2021/12/14 05:39:06;;;;;;;1999.90;999.90;;;;;;;4.79;99.21;163672.84;5045783;28;20386;-66
2021/12/14 05:44:16;;;;;;;1999.90;999.90;;;;;;;4.59;100.00;163622.06;5041416;28;20053;-66
2021/12/14 05:46:50;;;;;;;1999.90;999.90;;;;;;;4.80;99.67;163676.97;5043656;28;20142;-66
2021/12/14 05:49:23;;;;;;;1999.90;999.90;;;;;;;4.46;100.00;163585.06;5038039;28;20056;-66
2021/12/14 05:51:52;;;;;;;1999.90;999.90;;;;;;;4.43;100.00;163578.19;5036707;28;20088;-66
2021/12/14 05:54:25;;;;;;;1999.90;999.90;;;;;;;4.72;100.00;163655.03;5040408;28;20048;-66
2021/12/14 05:56:53;;;;;;;1999.90;999.90;;;;;;;4.65;100.00;163637.19;5040460;28;20073;-66
2021/12/14 05:59:25;;;;;;;1999.90;999.90;;;;;;;4.56;100.00;163613.84;5046608;28;20087;-66
2021/12/14 06:01:51;;;;;;;;;;;;;;;4.63;100.00;163630.31;5033187;28;20394;-66
2021/12/14 06:04:19;;;;;;;1999.90;999.90;;;;;;;4.73;100.00;163657.75;5073082;28;20204;-66
2021/12/14 06:06:51;;;;;;;1999.90;999.90;;;;;;;4.65;100.00;163635.81;5036656;28;20045;-66
2021/12/14 06:09:30;;;;;;;1999.90;999.90;;;;;;;4.62;100.00;163628.94;5044188;28;20090;-66
2021/12/14 06:12:05;;;;;;;1999.90;999.90;;;;;;;4.79;100.00;163674.19;5042797;28;20133;-66
2021/12/14 06:14:32;;;;;;;1999.90;999.90;;;;;;;4.80;99.97;163676.97;5034859;28;20081;-66
2021/12/14 06:17:04;;;;;;;1999.90;999.90;;;;;;;4.82;100.00;163682.44;5040960;28;20037;-66
2021/12/14 06:19:48;;;;;;;1999.90;999.90;;;;;;;4.80;100.00;163676.97;5042800;28;20130;-66
2021/12/14 06:22:17;;;;;;;1999.90;999.90;;;;;;;4.63;100.00;163630.31;5044365;28;20091;-66
2021/12/14 06:24:47;;;;;;;1999.90;999.90;;;;;;;4.54;100.00;163608.38;5040740;28;20084;-66
2021/12/14 06:27:17;;;;;;;1999.90;999.90;;;;;;;4.45;100.00;163583.72;5042078;28;20049;-66
2021/12/14 06:29:54;;;;;;;1999.90;999.90;;;;;;;4.50;100.00;163596.03;5042447;28;20084;-66
2021/12/14 06:32:34;;;;;;;1999.90;999.90;;;;;;;4.59;100.00;163622.06;5038890;28;20053;-66
2021/12/14 06:35:07;;;;;;;1999.90;999.90;;;;;;;4.68;100.00;163645.41;5047091;28;20126;-66
2021/12/14 06:38:10;;;;;;;1999.90;999.90;;;;;;;4.68;100.00;163644.06;5043193;28;20080;-66
2021/12/14 06:40:42;;;;;;;1999.90;999.90;;;;;;;4.55;100.00;163611.09;5040207;28;20095;-66
2021/12/14 06:43:11;;;;;;;;;;;;;;;4.71;100.00;163652.28;5041157;28;20081;-66
2021/12/14 06:45:43;;;;;;;1999.90;999.90;;;;;;;4.65;100.00;163637.19;5041900;28;19964;-66
2021/12/14 06:48:24;;;;;;;1999.90;999.90;;;;;;;4.44;100.00;163580.94;5046464;28;20385;-66
2021/12/14 06:51:07;;;;;;;1999.90;999.90;;;;;;;4.45;100.00;163582.31;5043931;28;20175;-66
2021/12/14 06:53:36;;;;;;;1999.90;999.90;;;;;;;4.22;100.00;163523.31;5044403;28;20146;-66
2021/12/14 06:56:08;;;;;;;1999.90;999.90;;;;;;;4.17;100.00;163509.63;5038071;28;20048;-66
2021/12/14 06:58:57;;;;;;;1999.90;999.90;;;;;;;4.40;100.00;163569.97;5045703;28;20084;-66
2021/12/14 07:01:30;;;;;;;1999.90;999.90;;;;;;;4.39;100.00;163567.22;5039080;28;20103;-66
2021/12/14 07:04:01;;;;;;;1999.90;999.90;;;;;;;4.29;100.00;163541.19;5034526;28;20092;-66
2021/12/14 07:06:35;;;;;;;1999.90;999.90;;;;;;;4.48;100.00;163591.94;5043053;28;20052;-66
2021/12/14 07:09:14;;;;;;;1999.90;999.90;;;;;;;4.70;100.00;163650.88;5045206;28;20323;-66
2021/12/14 07:11:45;;;;;;;1999.90;999.90;;;;;;;4.52;100.00;163602.88;5036656;28;20474;-66
2021/12/14 07:14:37;;;;;;;1999.90;999.90;;;;;;;4.65;100.00;163637.19;5042505;28;20509;-67
2021/12/14 07:17:27;;;;;;;1999.90;999.90;;;;;;;4.51;100.00;163600.16;5046469;28;20163;-67
2021/12/14 07:20:01;;;;;;;1999.90;999.90;;;;;;;4.71;100.00;163652.28;5036267;28;20367;-67
2021/12/14 07:22:41;;;;;;;1999.90;999.90;;;;;;;4.87;100.00;163696.19;5046657;28;20491;-67
2021/12/14 07:25:13;;;;;;;1999.90;999.90;;;;;;;4.89;100.00;163701.63;5041792;28;20075;-67
2021/12/14 07:27:40;;;;;;;1999.90;999.90;;;;;;;4.86;100.00;163693.41;5041179;28;20046;-67
2021/12/14 07:30:16;;;;;;;1999.90;999.90;;;;;;;4.94;100.00;163713.97;5042209;28;20475;-67
2021/12/14 07:32:47;;;;;;;1999.90;999.90;;;;;;;5.02;100.00;163735.97;5041089;28;20413;-67
2021/12/14 07:35:32;;;;;;;;;;;;;;;5.15;100.00;163768.88;5041212;28;20052;-67
2021/12/14 07:38:25;;;;;;;1999.90;999.90;;;;;;;4.88;100.00;163698.94;5041069;28;19921;-67
2021/12/14 07:41:01;;;;;;;1999.90;999.90;;;;;;;5.01;100.00;163731.84;5036997;28;20056;-67
2021/12/14 07:43:48;;;;;;;1999.90;999.90;;;;;;;4.84;100.00;163687.94;5050161;28;20077;-67
2021/12/14 07:46:20;;;;;;;1999.90;999.90;;;;;;;4.87;100.00;163696.19;5045636;28;20045;-67
2021/12/14 07:48:51;;;;;;;1999.90;999.90;;;;;;;4.98;100.00;163723.63;5037659;28;20136;-67
2021/12/14 07:51:20;;;;;;;1999.90;999.90;;;;;;;5.03;100.00;163737.31;5049141;28;20056;-66
2021/12/14 07:53:52;;;;;;;1999.90;999.90;;;;;;;5.18;100.00;163778.50;5040649;28;20049;-68
2021/12/14 07:56:49;;;;;;;1999.90;999.90;;;;;;;5.26;100.00;163799.09;5051053;28;20049;-68
2021/12/14 07:59:36;;;;;;;1999.90;999.90;;;;;;;5.33;100.00;163818.31;5045723;28;20345;-68
2021/12/14 08:02:17;;;;;;;1999.90;999.90;;;;;;;5.13;100.00;163764.75;5043494;28;20118;-68
2021/12/14 08:04:56;;;;;;;1999.90;999.90;;;;;;;5.25;100.00;163797.69;5036325;28;20044;-67
2021/12/14 08:07:28;;;;;;;1999.90;999.90;;;;;;;5.26;100.00;163799.09;5038687;28;20338;-68
2021/12/14 08:10:06;;;;;;;1999.90;999.90;;;;;;;5.44;100.00;163847.13;5047162;28;20510;-68
2021/12/14 08:12:44;;;;;;;1999.90;999.90;;;;;;;5.26;100.00;163800.44;5044555;28;20473;-68
2021/12/14 08:15:26;;;;;;;1999.90;999.90;;;;;;;5.33;100.00;163818.31;5049351;28;20080;-68
2021/12/14 08:18:11;;;;;;;;;;;;;;;5.18;100.00;163778.50;5043243;28;20115;-68
2021/12/14 08:20:51;;;;;;;1999.90;999.90;;;;;;;5.42;100.00;163843.00;5046685;28;20371;-68
2021/12/14 08:23:22;;;;;;;1999.90;999.90;;;;;;;5.61;100.00;163893.78;5047588;28;20107;-68
2021/12/14 08:25:53;;;;;;;1999.90;999.90;;;;;;;5.46;100.00;163852.59;5047003;28;20111;-68
2021/12/14 08:28:21;;;;;;;1999.90;999.90;;;;;;;5.48;100.00;163858.09;5048866;28;20323;-68
2021/12/14 08:31:08;;;;;;;1999.90;999.90;;;;;;;5.58;100.00;163885.56;5047329;28;20179;-68
2021/12/14 08:33:34;;;;;;;1999.90;999.90;;;;;;;5.48;100.00;163858.09;5046787;28;20371;-68
2021/12/14 08:36:05;;;;;;;1999.90;999.90;;;;;;;5.69;100.00;163913.03;5049288;28;20328;-68
2021/12/14 08:38:34;;;;;;;1999.90;999.90;;;;;;;5.77;100.00;163934.97;5046865;28;20584;-68
2021/12/14 08:41:22;;;;;;;1999.90;999.90;;;;;;;5.56;100.00;163878.69;5048474;28;20157;-68
2021/12/14 08:43:52;;;;;;;1999.90;999.90;;;;;;;5.80;100.00;163944.53;5046508;28;20073;-68
2021/12/14 08:46:30;;;;;;;1999.90;999.90;;;;;;;5.88;100.00;163965.19;5046080;28;20055;-68
2021/12/14 08:49:03;;;;;;;1999.90;999.90;;;;;;;5.94;100.00;163981.66;5044068;28;20063;-69
2021/12/14 08:51:40;;;;;;;1999.90;999.90;;;;;;;5.99;100.00;163994.06;5041114;28;20404;-69
2021/12/14 08:54:12;;;;;;;1999.90;999.90;;;;;;;6.08;100.00;164017.41;5042032;28;20388;-69
2021/12/14 08:56:45;;;;;;;1999.90;999.90;;;;;;;6.02;100.00;164000.94;5044381;28;20107;-69
2021/12/14 08:59:12;;;;;;;1999.90;999.90;;;;;;;6.20;100.00;164049.00;5036830;28;20122;-69
2021/12/14 09:01:42;;;;;;;1999.90;999.90;;;;;;;6.28;100.00;164072.34;5044837;28;20495;-68
2021/12/14 09:04:22;;;;;;;1999.90;999.90;;;;;;;6.17;100.00;164042.09;5039578;28;20056;-68
2021/12/14 09:07:11;;;;;;;1999.90;999.90;;;;;;;6.10;100.00;164022.88;5046260;28;20430;-69
2021/12/14 09:09:39;;;;;;;1999.90;999.90;;;;;;;6.24;100.00;164061.34;5037410;28;20098;-69
2021/12/14 09:12:14;;;;;;;1999.90;999.90;;;;;;;6.12;100.00;164028.41;5039580;28;20176;-69
2021/12/14 09:14:42;;;;;;;1999.90;999.90;;;;;;;6.10;100.00;164022.88;5042061;28;20106;-69
2021/12/14 09:17:13;;;;;;;1999.90;999.90;;;;;;;6.04;100.00;164006.41;5042929;28;20484;-69
2021/12/14 09:19:43;;;;;;;1999.90;999.90;;;;;;;6.19;100.00;164046.22;5040060;28;20084;-69
2021/12/14 09:22:19;;;;;;;1999.90;999.90;;;;;;;6.22;100.00;164055.81;5034677;28;20515;-69
2021/12/14 09:24:46;;;;;;;1999.90;999.90;;;;;;;6.34;100.00;164088.81;5038703;28;20134;-69
2021/12/14 09:27:20;;;;;;;1999.90;999.90;;;;;;;6.32;100.00;164083.28;5044529;28;20045;-68
2021/12/14 09:29:48;;;;;;;1999.90;999.90;;;;;;;6.12;100.00;164028.41;5041741;28;20041;-68
2021/12/14 09:32:22;;;;;;;1999.90;999.90;;;;;;;6.09;100.00;164020.09;5037420;28;20041;-69
2021/12/14 09:34:49;;;;;;;1999.90;999.90;;;;;;;5.95;100.00;163983.00;5034826;28;20099;-69
2021/12/14 09:37:18;;;;;;;1999.90;999.90;;;;;;;5.67;100.00;163907.50;5042268;28;20437;-69
2021/12/14 09:39:48;;;;;;;1999.90;999.90;;;;;;;5.69;100.00;163914.38;5041220;28;20412;-69
2021/12/14 09:42:22;;;;;;;1999.90;999.90;;;;;;;5.81;100.00;163947.31;5031350;28;20057;-69
2021/12/14 09:44:51;;;;;;;1999.90;999.90;;;;;;;6.30;100.00;164077.81;5035488;28;20049;-69
2021/12/14 09:47:21;;;;;;;1999.90;999.90;;;;;;;6.29;100.00;164075.03;5040821;28;20079;-69
2021/12/14 09:49:49;;;;;;;1999.90;999.90;;;;;;;6.39;100.00;164099.81;5042815;28;20057;-69
2021/12/14 09:52:28;;;;;;;1999.90;999.90;;;;;;;6.22;100.00;164054.47;5044121;28;20073;-69
2021/12/14 09:54:55;;;;;;;1999.90;999.90;;;;;;;6.24;100.00;164061.34;5044605;28;20153;-68
2021/12/14 09:57:36;;;;;;;1999.90;999.90;;;;;;;6.19;100.00;164046.22;5035317;28;20389;-69
2021/12/14 10:00:15;;;;;;;1999.90;999.90;;;;;;;6.17;100.00;164042.09;5045713;28;20056;-69
2021/12/14 10:02:46;;;;;;;1999.90;999.90;;;;;;;6.26;100.00;164065.47;5035295;28;20092;-69
2021/12/14 10:05:24;;;;;;;1999.90;999.90;;;;;;;5.96;100.00;163987.13;5038356;28;20385;-69
2021/12/14 10:07:54;;;;;;;1999.90;999.90;;;;;;;5.84;100.00;163954.19;5044037;28;20048;-70
2021/12/14 10:10:22;;;;;;;1999.90;999.90;;;;;;;5.58;100.00;163884.16;5036289;28;20053;-70
2021/12/14 10:12:53;;;;;;;1999.90;999.90;;;;;;;5.86;100.00;163959.66;5041702;28;20130;-70
2021/12/14 10:15:25;;;;;;;1999.90;999.90;;;;;;;5.28;100.00;163805.97;5044530;28;20071;-70
2021/12/14 10:17:55;;;;;;;1999.90;999.90;;;;;;;4.97;100.00;163722.22;5044363;28;20045;-70
2021/12/14 10:20:35;;;;;;;1999.90;999.90;;;;;;;5.40;100.00;163837.47;5036765;28;20095;-70
2021/12/14 10:23:02;;;;;;;1999.90;999.90;;;;;;;5.49;100.00;163860.81;5039525;28;20084;-70
2021/12/14 10:25:30;;;;;;;1999.90;999.90;;;;;;;5.52;100.00;163867.69;5053594;28;20109;-69
2021/12/14 10:27:57;;;;;;;1999.90;999.90;;;;;;;5.35;100.00;163822.44;5044408;28;20085;-69
2021/12/14 10:30:37;;;;;;;1999.90;999.90;;;;;;;5.18;100.00;163777.09;5033947;28;20056;-70
2021/12/14 10:33:06;;;;;;;1999.90;999.90;;;;;;;5.35;100.00;163823.78;5035114;28;20430;-70
2021/12/14 10:35:41;;;;;;;1999.90;999.90;;;;;;;5.51;100.00;163866.34;5039823;28;20133;-70
2021/12/14 10:38:19;;;;;;;1999.90;999.90;;;;;;;5.66;100.00;163906.16;5039329;28;20136;-70
2021/12/14 10:43:40;;;;;;;1999.90;999.90;;;;;;;5.46;100.00;163854.00;5042342;28;20118;-70
2021/12/14 10:46:16;;;;;;;1999.90;999.90;;;;;;;5.81;100.00;163945.94;5044807;28;20103;-70
2021/12/14 10:48:46;;;;;;;1999.90;999.90;;;;;;;5.86;100.00;163959.66;5046595;28;20472;-71
2021/12/14 10:51:27;;;;;;;1999.90;999.90;;;;;;;5.91;100.00;163973.41;5039009;28;20053;-70
2021/12/14 10:54:00;;;;;;;1999.90;999.90;;;;;;;5.74;100.00;163926.72;5043639;28;20088;-70
2021/12/14 10:56:40;;;;;;;1999.90;999.90;;;;;;;5.85;100.00;163956.94;5038476;28;20446;-71
2021/12/14 10:59:10;;;;;;;1999.90;999.90;;;;;;;6.01;100.00;163998.16;5046750;28;20044;-70
2021/12/14 11:01:39;;;;;;;1999.90;999.90;;;;;;;5.73;100.00;163925.38;5038016;28;20053;-70
2021/12/14 11:04:12;;;;;;;1999.90;999.90;;;;;;;5.58;100.00;163885.56;5040886;28;20330;-70
2021/12/14 11:06:47;;;;;;;1999.90;999.90;;;;;;;5.56;100.00;163880.03;5039325;28;20044;-70
2021/12/14 11:09:42;;;;;;;1999.90;999.90;;;;;;;5.57;100.00;163882.81;5041309;28;20103;-69
2021/12/14 11:12:20;;;;;;;1999.90;999.90;;;;;;;5.71;100.00;163918.50;5041380;28;20087;-70
2021/12/14 11:14:52;;;;;;;1999.90;999.90;;;;;;;5.53;100.00;163871.81;5039591;28;20095;-70
2021/12/14 11:20:13;;;;;;;1999.90;999.90;;;;;;;5.77;100.00;163936.31;5051617;28;20342;-69
2021/12/14 11:22:48;;;;;;;1999.90;999.90;;;;;;;5.77;100.00;163934.97;5042085;28;20152;-69
2021/12/14 11:25:49;;;;;;;1999.90;999.90;;;;;;;5.36;100.00;163826.53;5035354;28;20452;-70
2021/12/14 11:28:30;;;;;;;1999.90;999.90;;;;;;;5.61;100.00;163893.78;5039878;28;20053;-71
2021/12/14 11:31:06;;;;;;;1999.90;999.90;;;;;;;5.64;100.00;163902.03;5046158;28;20092;-69
2021/12/14 11:33:43;;;;;;;1999.90;999.90;;;;;;;5.70;100.00;163917.13;5046071;28;20349;-70
2021/12/14 11:36:17;;;;;;;1999.90;999.90;;;;;;;5.68;100.00;163910.25;5040342;28;20095;-70
2021/12/14 11:38:47;;;;;;;1999.90;999.90;;;;;;;5.84;100.00;163954.19;5036166;28;20080;-70
2021/12/14 11:41:22;;;;;;;1999.90;999.90;;;;;;;6.09;100.00;164020.09;5038188;28;20107;-70
2021/12/14 11:43:55;;;;;;;1999.90;999.90;;;;;;;6.27;100.00;164069.56;5044266;28;20441;-70
2021/12/14 11:46:22;;;;;;;1999.90;999.90;;;;;;;6.09;100.00;164020.09;5041968;28;20080;-70
2021/12/14 11:48:49;;;;;;;1999.90;999.90;;;;;;;6.21;100.00;164053.09;5045668;28;20464;-70
2021/12/14 11:51:16;;;;;;;1999.90;999.90;;;;;;;6.16;100.00;164039.34;5038993;28;20084;-70
2021/12/14 11:53:52;;;;;;;1999.90;999.90;;;;;;;5.94;100.00;163981.66;5042780;28;20057;-70